createdAt,value
2023-01-12T00:01:31.234Z,100609.47
2023-01-12T00:06:33.307Z,100595.13
2023-01-12T00:11:36.488Z,100598.00
2023-01-12T00:16:38.995Z,100584.66
2023-01-12T00:21:59.012Z,100586.44
2023-01-12T00:27:02.681Z,100578.47
2023-01-12T00:32:06.620Z,100571.16
2023-01-12T00:37:08.880Z,100578.34
2023-01-12T00:42:31.817Z,100573.28
2023-01-12T00:47:33.863Z,100557.25
2023-01-12T00:52:35.748Z,100552.66
2023-01-12T00:57:37.670Z,100538.78
2023-01-12T01:02:39.696Z,100541.44
2023-01-12T01:07:41.780Z,100535.25
2023-01-12T01:12:43.764Z,100536.03
2023-01-12T01:17:45.645Z,100520.28
2023-01-12T01:22:47.820Z,100519.31
2023-01-12T01:27:49.882Z,100507.78
2023-01-12T01:32:51.815Z,100515.75
2023-01-12T01:37:53.956Z,100493.69
2023-01-12T01:42:55.853Z,100494.53
2023-01-12T01:48:02.516Z,100494.66
2023-01-12T01:53:14.468Z,100488.28
2023-01-12T01:58:22.433Z,100469.81
2023-01-12T02:03:26.392Z,100463.47
2023-01-12T02:09:02.084Z,100461.91
2023-01-12T02:14:22.823Z,100462.75
2023-01-12T02:19:39.731Z,100455.66
2023-01-12T02:25:03.170Z,100460.03
2023-01-12T02:30:29.472Z,100435.53
2023-01-12T02:35:47.305Z,100447.00
2023-01-12T02:41:03.951Z,100436.31
2023-01-12T02:46:28.922Z,100426.56
2023-01-12T02:51:46.496Z,100428.34
2023-01-12T02:56:52.237Z,100420.19
2023-01-12T03:02:00.059Z,100401.81
2023-01-12T03:07:01.792Z,100403.56
2023-01-12T03:12:07.536Z,100389.50
2023-01-12T03:17:17.950Z,100387.00
2023-01-12T03:22:21.492Z,100378.91
2023-01-12T03:27:32.593Z,100385.81
2023-01-12T03:32:35.730Z,100363.81
2023-01-12T03:38:09.843Z,100354.25
2023-01-12T03:43:21.055Z,100341.56
2023-01-12T03:48:43.012Z,100331.66
2023-01-12T03:53:47.634Z,100325.50
2023-01-12T03:58:50.064Z,100304.28
2023-01-12T04:03:51.913Z,100286.81
2023-01-12T04:08:53.795Z,100292.13
2023-01-12T04:13:55.553Z,100274.34
2023-01-12T04:18:57.550Z,100258.75
2023-01-12T04:24:00.666Z,100253.13
2023-01-12T04:29:02.598Z,100248.66
2023-01-12T04:34:04.643Z,100261.91
2023-01-12T04:39:06.507Z,100241.03
2023-01-12T04:44:08.764Z,100206.22
2023-01-12T04:49:10.735Z,100188.59
2023-01-12T04:54:13.121Z,100181.56
2023-01-12T04:59:15.056Z,100162.16
2023-01-12T05:04:16.973Z,100160.34
2023-01-12T05:09:37.285Z,100140.16
2023-01-12T05:14:39.145Z,100138.28
2023-01-12T05:19:41.147Z,100136.53
2023-01-12T05:24:43.010Z,100130.38
2023-01-12T05:29:44.849Z,100124.06
2023-01-12T05:34:46.591Z,100132.78
2023-01-12T05:39:48.422Z,100109.00
2023-01-12T05:44:50.468Z,100113.44
2023-01-12T05:49:52.375Z,100118.75
2023-01-12T05:54:54.229Z,100116.19
2023-01-12T05:59:56.616Z,100110.00
2023-01-12T06:04:59.102Z,100102.25
2023-01-12T06:10:00.976Z,100095.13
2023-01-12T06:15:02.971Z,100100.09
2023-01-12T06:20:05.653Z,100086.13
2023-01-12T06:25:08.001Z,100086.91
2023-01-12T06:30:10.555Z,100087.03
2023-01-12T06:35:19.115Z,100092.41
2023-01-12T06:40:21.037Z,100102.16
2023-01-12T06:45:22.960Z,100087.69
2023-01-12T06:50:25.169Z,100098.47
2023-01-12T06:55:27.619Z,100101.13
2023-01-12T07:00:29.803Z,100101.28
2023-01-12T07:05:31.698Z,100106.59
2023-01-12T07:10:33.897Z,100101.41
2023-01-12T07:15:35.994Z,100097.88
2023-01-12T07:20:38.159Z,100111.81
2023-01-12T07:25:40.180Z,100126.97
2023-01-12T07:30:42.195Z,100101.28
2023-01-12T07:35:44.555Z,100126.28
2023-01-12T07:40:46.528Z,100136.03
2023-01-12T07:45:48.515Z,100124.53
2023-01-12T07:50:50.268Z,100118.69
2023-01-12T07:55:51.958Z,100117.72
2023-01-12T08:00:53.742Z,100125.41
2023-01-12T08:05:56.777Z,100132.53
2023-01-12T08:11:06.086Z,100127.16
2023-01-12T08:16:17.414Z,100132.28
2023-01-12T08:21:22.636Z,100137.66
2023-01-12T08:26:30.315Z,100157.09
2023-01-12T08:31:32.964Z,100160.41
2023-01-12T08:36:35.267Z,100152.78
2023-01-12T08:41:38.155Z,100150.00
2023-01-12T08:46:52.700Z,100164.19
2023-01-12T08:51:54.809Z,100166.06
2023-01-12T08:56:56.898Z,100157.44
2023-01-12T09:01:59.028Z,100164.44
2023-01-12T09:07:01.184Z,100169.59
2023-01-12T09:12:03.828Z,100170.25
2023-01-12T09:17:07.206Z,100182.59
2023-01-12T09:22:10.458Z,100189.06
2023-01-12T09:27:12.887Z,100180.97
2023-01-12T09:32:16.858Z,100189.69
2023-01-12T09:37:20.961Z,100195.09
2023-01-12T09:42:41.897Z,100205.75
2023-01-12T09:47:56.574Z,100218.94
2023-01-12T09:53:07.804Z,100220.84
2023-01-12T09:58:44.579Z,100214.41
2023-01-12T10:03:46.807Z,100232.22
2023-01-12T10:08:52.715Z,100224.19
2023-01-12T10:14:16.648Z,100226.06
2023-01-12T10:19:35.367Z,100232.22
2023-01-12T10:24:42.255Z,100225.88
2023-01-12T10:29:44.514Z,100220.66
2023-01-12T10:34:51.407Z,100228.47
2023-01-12T10:39:54.868Z,100219.66
2023-01-12T10:45:16.542Z,100210.22
2023-01-12T10:50:37.668Z,100213.66
2023-01-12T10:55:41.781Z,100226.84
2023-01-12T11:00:48.324Z,100225.81
2023-01-12T11:05:50.400Z,100227.06
2023-01-12T11:10:52.320Z,100225.31
2023-01-12T11:16:13.659Z,100220.31
2023-01-12T11:21:20.108Z,100205.13
2023-01-12T11:26:32.810Z,100211.63
2023-01-12T11:31:42.992Z,100212.47
2023-01-12T11:36:53.264Z,100206.22
2023-01-12T11:42:17.324Z,100215.44
2023-01-12T11:47:27.149Z,100225.97
2023-01-12T11:52:29.802Z,100214.75
2023-01-12T11:57:58.883Z,100215.84
2023-01-12T12:03:31.501Z,100201.50
2023-01-12T12:08:33.505Z,100206.66
2023-01-12T12:14:04.493Z,100200.41
2023-01-12T12:19:33.780Z,100181.31
2023-01-12T12:25:05.443Z,100183.78
2023-01-12T12:30:48.761Z,100175.06
2023-01-12T12:36:02.873Z,100162.56
2023-01-12T12:42:04.761Z,100162.28
2023-01-12T12:47:42.031Z,100156.66
2023-01-12T12:52:48.966Z,100158.47
2023-01-12T12:58:26.984Z,100144.44
2023-01-12T13:03:59.347Z,100125.59
2023-01-12T13:09:11.572Z,100144.75
2023-01-12T13:14:34.368Z,100128.06
2023-01-12T13:19:47.592Z,100135.78
2023-01-12T13:24:49.376Z,100122.34
2023-01-12T13:29:51.158Z,100122.75
2023-01-12T13:34:53.111Z,100119.09
2023-01-12T13:40:25.295Z,100122.69
2023-01-12T13:45:27.249Z,100113.78
2023-01-12T13:50:29.884Z,100120.97
2023-01-12T13:55:33.819Z,100107.53
2023-01-12T14:00:36.745Z,100112.09
2023-01-12T14:06:02.634Z,100105.31
2023-01-12T14:11:41.785Z,100105.31
2023-01-12T14:17:04.916Z,100100.78
2023-01-12T14:22:18.453Z,100095.47
2023-01-12T14:27:24.268Z,100092.66
2023-01-12T14:32:27.054Z,100076.06
2023-01-12T14:37:34.990Z,100098.19
2023-01-12T14:42:55.629Z,100096.94
2023-01-12T14:48:27.752Z,100085.22
2023-01-12T14:53:40.052Z,100081.53
2023-01-12T14:58:42.042Z,100072.38
2023-01-12T15:03:48.608Z,100074.94
2023-01-12T15:08:56.592Z,100065.25
2023-01-12T15:13:59.812Z,100062.03
2023-01-12T15:19:20.124Z,100065.44
2023-01-12T15:24:45.255Z,100063.66
2023-01-12T15:29:47.655Z,100050.13
2023-01-12T15:34:49.693Z,100056.13
2023-01-12T15:39:51.978Z,100053.03
2023-01-12T15:44:54.631Z,100047.38
2023-01-12T15:49:56.763Z,100048.59
2023-01-12T15:54:58.696Z,100033.69
2023-01-12T16:00:01.091Z,100030.63
2023-01-12T16:05:05.059Z,100025.31
2023-01-12T16:10:07.751Z,100040.97
2023-01-12T16:15:24.903Z,100021.13
2023-01-12T16:20:26.957Z,100024.97
2023-01-12T16:25:28.951Z,99991.25
2023-01-12T16:30:31.156Z,100024.97
2023-01-12T16:35:33.797Z,100033.97
2023-01-12T16:40:40.214Z,100030.19
2023-01-12T16:45:42.851Z,100024.22
2023-01-12T16:50:45.247Z,100040.13
2023-01-12T16:55:47.160Z,100032.31
2023-01-12T17:00:49.202Z,100025.31
2023-01-12T17:05:52.928Z,100016.41
2023-01-12T17:10:55.083Z,100018.47
2023-01-12T17:15:57.525Z,100014.88
2023-01-12T17:21:09.349Z,100007.88
2023-01-12T17:26:18.014Z,100013.69
2023-01-12T17:31:20.760Z,100016.41
2023-01-12T17:36:22.984Z,100031.56
2023-01-12T17:41:43.939Z,100016.41
2023-01-12T17:46:46.648Z,100014.63
2023-01-12T17:51:48.707Z,100012.56
2023-01-12T17:56:50.878Z,100021.56
2023-01-12T18:01:54.050Z,100017.09
2023-01-12T18:06:56.243Z,100021.47
2023-01-12T18:12:00.407Z,100006.56
2023-01-12T18:17:02.591Z,100017.00
2023-01-12T18:22:07.248Z,100021.28
2023-01-12T18:27:09.077Z,100013.34
2023-01-12T18:32:10.947Z,100009.06
2023-01-12T18:37:13.734Z,100008.56
2023-01-12T18:42:34.577Z,100004.88
2023-01-12T18:47:55.109Z,100004.94
2023-01-12T18:53:15.403Z,99997.59
2023-01-12T18:58:17.538Z,99985.34
2023-01-12T19:03:19.304Z,99989.88
2023-01-12T19:08:40.268Z,99987.16
2023-01-12T19:14:01.427Z,99970.31
2023-01-12T19:19:03.478Z,99972.09
2023-01-12T19:24:23.937Z,99952.66
2023-01-12T19:29:25.928Z,99949.66
2023-01-12T19:34:28.070Z,99988.34
2023-01-12T19:39:59.485Z,99958.16
2023-01-12T19:45:06.626Z,99950.91
2023-01-12T19:50:10.180Z,99959.91
2023-01-12T19:55:14.319Z,99946.81
2023-01-12T20:00:16.686Z,99953.84
2023-01-12T20:05:23.126Z,99968.09
2023-01-12T20:10:25.855Z,99966.53
2023-01-12T20:15:27.968Z,99980.50
2023-01-12T20:20:30.631Z,99986.28
2023-01-12T20:25:32.550Z,99993.78
2023-01-12T20:30:38.315Z,99999.53
2023-01-12T20:35:46.983Z,100002.31
2023-01-12T20:40:48.740Z,99997.19
2023-01-12T20:45:52.723Z,100009.53
2023-01-12T20:50:54.820Z,100001.66
2023-01-12T20:55:56.762Z,99994.69
2023-01-12T21:00:58.813Z,99981.78
2023-01-12T21:06:01.328Z,99967.59
2023-01-12T21:11:03.276Z,99983.81
2023-01-12T21:16:07.738Z,99966.63
2023-01-12T21:21:10.684Z,99961.41
2023-01-12T21:26:13.080Z,99967.06
2023-01-12T21:31:15.387Z,99968.84
2023-01-12T21:36:18.924Z,99979.75
2023-01-12T21:41:22.021Z,99977.44
2023-01-12T21:46:24.307Z,99977.84
2023-01-12T21:51:26.192Z,99964.50
2023-01-12T21:56:28.351Z,99974.28
2023-01-12T22:01:30.384Z,99963.47
2023-01-12T22:06:32.309Z,99964.00
2023-01-12T22:11:34.393Z,99953.56
2023-01-12T22:16:36.409Z,99964.09
2023-01-12T22:21:38.430Z,99965.03
2023-01-12T22:26:40.289Z,99959.56
2023-01-12T22:31:42.250Z,99958.88
2023-01-12T22:36:44.329Z,99950.06
2023-01-12T22:41:47.812Z,99954.53
2023-01-12T22:46:49.716Z,99956.31
2023-01-12T22:51:51.881Z,99966.06
2023-01-12T22:56:53.907Z,99973.75
2023-01-12T23:01:57.727Z,99960.75
2023-01-12T23:06:59.555Z,99967.03
2023-01-12T23:12:01.414Z,99978.47
2023-01-12T23:17:03.961Z,99975.63
2023-01-12T23:22:05.770Z,99982.75
2023-01-12T23:27:08.067Z,99987.47
2023-01-12T23:32:10.131Z,99981.13
2023-01-12T23:37:11.823Z,99962.47
2023-01-12T23:42:14.077Z,99973.94
2023-01-12T23:47:15.847Z,99964.44
2023-01-12T23:52:17.780Z,99957.25
2023-01-12T23:57:19.838Z,99953.75
